Time;durP1;ratioP1;P1;durP2;ratioP2;P2;SDS_P1;SDS_P2;PMS_P1;PMS_P2;Temp;Humidity;BMP_temperature;BMP_pressure;BME280_temperature;BME280_humidity;BME280_pressure;Samples;Min_cycle;Max_cycle;Signal;HPM_P1;HPM_P2
2023/07/17 00:01:38;;;;;;;0.00;0.00;;;;;;;11.28;100.00;100243.34;5013349;28;20029;-76
2023/07/17 00:04:04;;;;;;;0.00;0.00;;;;;;;11.29;100.00;100245.00;4999743;28;20045;-75
2023/07/17 00:06:29;;;;;;;0.00;0.00;;;;;;;11.24;100.00;100248.53;5010920;28;20152;-77
2023/07/17 00:08:55;;;;;;;0.00;0.00;;;;;;;11.21;100.00;100248.25;5030415;28;20823;-75
2023/07/17 00:11:20;;;;;;;0.00;0.00;;;;;;;11.24;100.00;100259.47;5022938;28;20034;-77
2023/07/17 00:13:46;;;;;;;0.00;0.00;;;;;;;11.26;100.00;100251.81;5006429;28;20033;-79
2023/07/17 00:16:11;;;;;;;0.00;0.00;;;;;;;11.22;100.00;100245.25;5031337;28;20093;-76
2023/07/17 00:18:37;;;;;;;0.00;0.00;;;;;;;11.26;100.00;100251.81;5006951;28;20679;-76
2023/07/17 00:21:03;;;;;;;0.00;0.00;;;;;;;11.19;100.00;100240.34;5001588;28;20030;-73
2023/07/17 00:24:04;;;;;;;0.00;0.00;;;;;;;11.16;100.00;100236.22;5018748;28;20109;-79
2023/07/17 00:26:30;;;;;;;0.00;0.00;;;;;;;11.19;100.00;100245.81;5044957;28;20124;-78
2023/07/17 00:29:23;;;;;;;0.00;0.00;;;;;;;11.25;100.00;100247.44;5017767;28;20073;-73
2023/07/17 00:31:49;;;;;;;0.00;0.00;;;;;;;11.21;100.00;100240.88;5014385;28;20066;-79
2023/07/17 00:34:15;;;;;;;0.00;0.00;;;;;;;11.32;100.00;100253.44;5040423;28;20034;-76
2023/07/17 00:36:40;;;;;;;0.00;0.00;;;;;;;11.33;100.00;100257.84;5011265;28;20175;-76
2023/07/17 00:39:07;;;;;;;0.00;0.00;;;;;;;11.46;100.00;100272.06;5011556;28;20029;-77
2023/07/17 00:41:32;;;;;;;0.00;0.00;;;;;;;11.41;100.00;100253.72;4986153;28;20032;-78
2023/07/17 00:43:58;;;;;;;0.00;0.00;;;;;;;11.34;100.00;100259.47;5023380;28;20064;-75
2023/07/17 00:46:24;;;;;;;0.00;0.00;;;;;;;11.41;100.00;100266.59;5019771;28;20083;-76
2023/07/17 00:48:52;;;;;;;0.00;0.00;;;;;;;11.35;100.00;100263.84;5016555;28;20033;-75
2023/07/17 00:51:21;;;;;;;0.00;0.00;;;;;;;11.19;100.00;100245.81;5047163;28;20391;-78
2023/07/17 00:53:47;;;;;;;0.00;0.00;;;;;;;11.20;100.00;100252.94;5009731;28;20061;-76
2023/07/17 00:56:13;;;;;;;0.00;0.00;;;;;;;11.13;100.00;100263.31;5017822;28;20030;-78
2023/07/17 00:58:39;;;;;;;0.00;0.00;;;;;;;11.02;100.00;100264.41;5021724;28;20025;-76
2023/07/17 01:01:04;;;;;;;0.00;0.00;;;;;;;11.12;100.00;100280.84;5017843;28;20437;-77
2023/07/17 01:03:30;;;;;;;0.00;0.00;;;;;;;11.02;100.00;100267.16;4993030;28;20038;-76
2023/07/17 01:06:01;;;;;;;0.00;0.00;;;;;;;11.12;100.00;100286.31;5019319;28;20038;-76
2023/07/17 01:08:26;;;;;;;0.00;0.00;;;;;;;10.96;100.00;100258.91;5025137;28;20026;-78
2023/07/17 01:10:52;;;;;;;0.00;0.00;;;;;;;11.13;100.00;100285.22;5032445;28;20034;-77
2023/07/17 01:13:18;;;;;;;0.00;0.00;;;;;;;11.07;100.00;100276.19;5026161;28;20026;-76
2023/07/17 01:15:43;;;;;;;0.00;0.00;;;;;;;11.07;100.00;100281.66;5012248;28;20034;-74
2023/07/17 01:18:09;;;;;;;0.00;0.00;;;;;;;11.04;100.00;100264.94;5008963;28;20407;-75
2023/07/17 01:20:35;;;;;;;0.00;0.00;;;;;;;11.12;100.00;100283.56;5031800;28;20106;-77
2023/07/17 01:23:07;;;;;;;0.00;0.00;;;;;;;11.13;100.00;100279.75;4999815;28;20036;-74
2023/07/17 01:25:33;;;;;;;0.00;0.00;;;;;;;11.16;100.00;100284.69;5016044;28;20014;-76
2023/07/17 01:27:59;;;;;;;0.00;0.00;;;;;;;11.17;100.00;100289.88;5000190;28;20108;-75
2023/07/17 01:30:25;;;;;;;0.00;0.00;;;;;;;11.15;100.00;100274.81;5009424;28;20038;-76
2023/07/17 01:32:51;;;;;;;0.00;0.00;;;;;;;11.16;100.00;100280.00;5028004;28;20471;-73
2023/07/17 01:35:16;;;;;;;0.00;0.00;;;;;;;11.20;100.00;100283.03;5017253;28;20041;-80
2023/07/17 01:37:42;;;;;;;0.00;0.00;;;;;;;11.12;100.00;100264.41;5015759;28;20041;-76
2023/07/17 01:40:09;;;;;;;0.00;0.00;;;;;;;11.15;100.00;100274.81;4995248;28;20038;-76
2023/07/17 01:42:35;;;;;;;0.00;0.00;;;;;;;11.11;100.00;100276.44;5006962;28;20061;-78
2023/07/17 01:45:01;;;;;;;0.10;0.10;;;;;;;11.08;100.00;100274.25;4995225;28;20126;-78
2023/07/17 01:47:27;;;;;;;0.00;0.00;;;;;;;11.07;100.00;100286.28;5027548;28;20061;-75
2023/07/17 01:49:53;;;;;;;0.00;0.00;;;;;;;11.03;100.00;100274.28;4995595;28;20030;-79
2023/07/17 01:52:18;;;;;;;0.00;0.00;;;;;;;10.98;100.00;100289.59;5016735;28;20022;-74
2023/07/17 01:54:44;;;;;;;0.00;0.00;;;;;;;10.96;100.00;100277.25;5020902;28;20022;-75
2023/07/17 01:57:09;;;;;;;0.00;0.00;;;;;;;10.95;100.00;100273.72;5031609;28;20517;-74
2023/07/17 01:59:35;;;;;;;0.00;0.00;;;;;;;10.98;100.00;100267.69;5017769;28;20029;-78
2023/07/17 02:02:00;;;;;;;0.00;0.00;;;;;;;11.08;100.00;100271.53;5013597;28;20824;-75
2023/07/17 02:04:26;;;;;;;0.00;0.00;;;;;;;11.13;100.00;100277.00;5003430;28;20125;-76
2023/07/17 02:06:52;;;;;;;0.00;0.00;;;;;;;11.20;100.00;100273.97;5007647;28;20413;-74
2023/07/17 02:09:17;;;;;;;0.00;0.00;;;;;;;11.25;100.00;100265.78;5033244;28;20080;-76
2023/07/17 02:11:43;;;;;;;0.00;0.00;;;;;;;11.29;100.00;100264.97;5031519;28;20053;-76
2023/07/17 02:14:08;;;;;;;0.00;0.00;;;;;;;11.26;100.00;100251.81;5016548;28;20018;-73
2023/07/17 02:16:34;;;;;;;0.00;0.00;;;;;;;11.24;100.00;100254.00;5001014;28;20030;-75
2023/07/17 02:18:59;;;;;;;0.00;0.00;;;;;;;11.34;100.00;100261.41;5032758;28;20022;-75
2023/07/17 02:21:25;;;;;;;0.00;0.00;;;;;;;11.34;100.00;100259.47;5010455;28;20105;-74
2023/07/17 02:23:50;;;;;;;0.00;0.00;;;;;;;11.37;100.00;100263.56;5009593;28;20372;-74
2023/07/17 02:26:16;;;;;;;0.00;0.00;;;;;;;11.38;100.00;100253.47;5012389;28;20129;-75
2023/07/17 02:28:41;;;;;;;0.00;0.00;;;;;;;11.46;100.00;100269.31;5010080;28;20137;-76
2023/07/17 02:31:07;;;;;;;0.00;0.00;;;;;;;11.46;100.00;100269.31;4996248;28;20038;-76
2023/07/17 02:33:32;;;;;;;0.00;0.00;;;;;;;11.42;100.00;100266.31;5025123;28;20038;-77
2023/07/17 02:35:57;;;;;;;0.00;0.00;;;;;;;11.40;100.00;100268.50;5037894;28;20036;-76
2023/07/17 02:38:23;;;;;;;0.00;0.00;;;;;;;11.37;100.00;100269.06;5024485;28;20097;-77
2023/07/17 02:40:48;;;;;;;0.00;0.00;;;;;;;11.33;100.00;100274.28;5018802;28;20069;-76
2023/07/17 02:43:13;;;;;;;0.00;0.00;;;;;;;11.24;100.00;100264.94;5026074;28;20116;-76
2023/07/17 02:45:39;;;;;;;0.00;0.00;;;;;;;11.21;100.00;100275.63;5016960;28;20052;-76
2023/07/17 02:48:05;;;;;;;0.00;0.00;;;;;;;11.15;100.00;100281.09;5025388;28;20037;-77
2023/07/17 02:50:30;;;;;;;0.00;0.00;;;;;;;11.09;100.00;100262.22;5022600;28;20609;-76
2023/07/17 02:52:56;;;;;;;0.00;0.00;;;;;;;11.12;100.00;100276.16;5012201;28;20376;-77
2023/07/17 02:55:22;;;;;;;0.00;0.00;;;;;;;11.18;100.00;100272.38;5020241;28;20030;-76
2023/07/17 02:57:47;;;;;;;0.00;0.00;;;;;;;11.18;100.00;100282.47;5020989;28;20023;-76
2023/07/17 03:00:14;;;;;;;0.00;0.00;;;;;;;11.17;100.00;100275.38;5003709;28;20364;-76
2023/07/17 03:02:42;;;;;;;0.00;0.00;;;;;;;11.14;100.00;100270.41;5028331;28;20124;-75
2023/07/17 03:05:08;;;;;;;0.00;0.00;;;;;;;11.23;100.00;100277.00;5011432;28;20025;-75
2023/07/17 03:07:35;;;;;;;0.00;0.00;;;;;;;11.26;100.00;100281.94;5004494;28;20054;-77
2023/07/17 03:10:02;;;;;;;0.00;0.00;;;;;;;11.28;100.00;100282.47;5003090;28;20480;-75
2023/07/17 03:12:27;;;;;;;0.00;0.00;;;;;;;11.28;100.00;100279.72;5046658;28;20034;-75
2023/07/17 03:14:53;;;;;;;0.00;0.00;;;;;;;11.35;100.00;100285.75;5008928;28;20033;-78
2023/07/17 03:17:18;;;;;;;0.00;0.00;;;;;;;11.42;100.00;100292.88;5017254;28;20038;-76
2023/07/17 03:19:44;;;;;;;0.00;0.00;;;;;;;11.48;100.00;100302.75;5040758;28;20029;-77
2023/07/17 03:22:09;;;;;;;0.00;0.00;;;;;;;11.45;100.00;100293.16;5013031;28;20091;-80
2023/07/17 03:24:35;;;;;;;0.00;0.00;;;;;;;11.39;100.00;100285.19;5004192;28;20034;-78
2023/07/17 03:27:01;;;;;;;0.00;0.00;;;;;;;11.49;100.00;100298.88;5027556;28;20072;-75
2023/07/17 03:29:36;;;;;;;;;;;;;;;;;;;;;
2023/07/17 03:32:08;;;;;;;0.00;0.00;;;;;;;11.24;100.00;100264.94;5010434;28;20038;-79
2023/07/17 03:34:34;;;;;;;0.00;0.00;;;;;;;11.48;100.00;100297.25;4998295;28;20114;-78
2023/07/17 03:36:59;;;;;;;0.00;0.00;;;;;;;11.33;100.00;100292.59;5006589;28;20033;-79
2023/07/17 03:39:24;;;;;;;0.00;0.00;;;;;;;11.46;100.00;100310.38;5011695;28;20391;-80
2023/07/17 03:41:50;;;;;;;0.00;0.00;;;;;;;11.41;100.00;100307.66;5026621;28;20030;-77
2023/07/17 03:44:15;;;;;;;0.00;0.00;;;;;;;11.39;100.00;100310.69;4997077;28;20041;-78
2023/07/17 03:46:41;;;;;;;0.00;0.00;;;;;;;11.38;100.00;100313.69;5024429;28;20410;-76
2023/07/17 03:49:07;;;;;;;0.00;0.00;;;;;;;11.39;100.00;100324.38;5013136;28;20057;-79
2023/07/17 03:51:32;;;;;;;0.00;0.00;;;;;;;11.29;100.00;100316.97;5024470;28;20105;-76
2023/07/17 03:53:58;;;;;;;0.00;0.00;;;;;;;11.35;100.00;100332.28;5044654;28;20040;-77
2023/07/17 03:56:26;;;;;;;0.00;0.00;;;;;;;11.35;100.00;100321.34;4992688;28;20030;-79
2023/07/17 03:58:51;;;;;;;0.00;0.00;;;;;;;11.40;100.00;100334.22;5004264;28;20018;-77
2023/07/17 04:01:17;;;;;;;0.00;0.00;;;;;;;11.28;100.00;100320.78;4994988;28;20033;-78
2023/07/17 04:03:42;;;;;;;0.00;0.00;;;;;;;11.37;100.00;100331.22;4979659;28;20410;-81
2023/07/17 04:06:08;;;;;;;0.00;0.00;;;;;;;11.46;100.00;100332.28;5029829;28;20041;-78
2023/07/17 04:08:34;;;;;;;0.00;0.00;;;;;;;11.44;100.00;100329.03;4985608;28;20046;-78
2023/07/17 04:11:00;;;;;;;0.00;0.00;;;;;;;11.51;100.00;100324.09;5032227;28;20072;-78
2023/07/17 04:13:26;;;;;;;0.00;0.00;;;;;;;11.44;100.00;100323.53;5039225;28;20120;-76
2023/07/17 04:15:52;;;;;;;0.00;0.00;;;;;;;11.31;100.00;100301.06;5004534;28;20414;-77
2023/07/17 04:18:18;;;;;;;0.00;0.00;;;;;;;11.44;100.00;100323.53;5014931;28;20046;-79
2023/07/17 04:20:46;;;;;;;0.00;0.00;;;;;;;11.42;100.00;100332.03;5036209;28;20729;-78
2023/07/17 04:23:12;;;;;;;0.00;0.00;;;;;;;11.32;100.00;100316.41;5029820;28;20026;-76
2023/07/17 04:25:39;;;;;;;0.00;0.00;;;;;;;11.45;100.00;100342.44;5026782;28;20034;-77
2023/07/17 04:28:05;;;;;;;0.00;0.00;;;;;;;11.43;100.00;100344.59;5030150;28;20759;-79
2023/07/17 04:30:30;;;;;;;0.00;0.00;;;;;;;11.46;100.00;100337.78;5043534;28;20037;-76
2023/07/17 04:32:58;;;;;;;0.00;0.00;;;;;;;11.52;100.00;100347.63;5001192;28;20486;-74
2023/07/17 04:35:24;;;;;;;0.00;0.00;;;;;;;11.68;100.00;100352.00;4999368;28;20018;-74
2023/07/17 04:37:50;;;;;;;0.00;0.00;;;;;;;11.86;100.00;100353.34;5045277;28;20072;-78
2023/07/17 04:40:18;;;;;;;0.00;0.00;;;;;;;11.99;100.00;100352.00;5023755;28;20030;-77
2023/07/17 04:42:44;;;;;;;0.00;0.00;;;;;;;12.12;100.00;100345.13;5013589;28;20036;-80
2023/07/17 04:45:11;;;;;;;0.00;0.00;;;;;;;12.29;100.00;100355.75;5025893;28;20801;-76
2023/07/17 04:47:36;;;;;;;0.00;0.00;;;;;;;12.39;100.00;100355.72;5011211;28;20038;-78
2023/07/17 04:50:02;;;;;;;0.00;0.00;;;;;;;12.46;100.00;100346.38;5010519;28;20044;-75
2023/07/17 04:52:28;;;;;;;0.00;0.00;;;;;;;12.54;100.00;100345.78;5028158;28;20044;-75
2023/07/17 04:54:53;;;;;;;0.00;0.00;;;;;;;12.61;100.00;100351.78;4997285;28;20030;-74
2023/07/17 04:57:19;;;;;;;0.00;0.00;;;;;;;12.67;100.00;100350.66;5020446;28;20045;-75
2023/07/17 04:59:44;;;;;;;0.00;0.00;;;;;;;12.65;100.00;100346.56;5036799;28;20041;-78
2023/07/17 05:02:10;;;;;;;0.00;0.00;;;;;;;12.65;100.00;100347.38;5013006;28;20076;-76
2023/07/17 05:04:36;;;;;;;0.00;0.00;;;;;;;12.58;100.00;100344.13;5008471;28;20479;-75
2023/07/17 05:07:01;;;;;;;0.00;0.00;;;;;;;12.47;100.00;100339.78;5007774;28;20057;-75
2023/07/17 05:09:26;;;;;;;0.00;0.00;;;;;;;12.40;100.00;100345.56;4992612;28;20457;-76
2023/07/17 05:11:52;;;;;;;0.00;0.00;;;;;;;12.31;100.00;100352.72;5042061;28;20037;-75
2023/07/17 05:14:18;;;;;;;0.00;0.00;;;;;;;12.29;100.00;100358.47;5037208;28;20034;-75
2023/07/17 05:16:44;;;;;;;0.00;0.00;;;;;;;12.25;100.00;100351.94;5012901;28;20097;-75
2023/07/17 05:19:09;;;;;;;0.00;0.00;;;;;;;12.21;100.00;100354.41;5005978;28;20038;-74
2023/07/17 05:21:35;;;;;;;0.00;0.00;;;;;;;12.09;100.00;100340.19;5034327;28;20078;-75
2023/07/17 05:24:00;;;;;;;0.00;0.00;;;;;;;12.11;100.00;100345.41;4995511;28;20061;-74
2023/07/17 05:26:25;;;;;;;0.00;0.00;;;;;;;12.26;100.00;100372.75;5003350;28;20109;-74
2023/07/17 05:28:51;;;;;;;0.00;0.00;;;;;;;12.32;100.00;100377.13;5020838;28;20527;-74
2023/07/17 05:31:16;;;;;;;0.00;0.00;;;;;;;12.32;100.00;100368.09;5020438;28;20116;-74
2023/07/17 05:33:42;;;;;;;0.00;0.00;;;;;;;12.33;100.00;100362.31;4989614;28;20034;-75
2023/07/17 05:36:07;;;;;;;0.00;0.00;;;;;;;12.39;100.00;100368.59;5006704;28;20480;-73
2023/07/17 05:38:33;;;;;;;0.00;0.00;;;;;;;12.53;100.00;100390.78;5022555;28;20034;-73
2023/07/17 05:41:00;;;;;;;0.00;0.00;;;;;;;12.55;100.00;100386.63;5024327;28;20041;-74
2023/07/17 05:43:26;;;;;;;0.00;0.00;;;;;;;12.63;100.00;100390.75;5003535;28;20033;-73
2023/07/17 05:45:53;;;;;;;0.00;0.00;;;;;;;12.61;100.00;100379.22;5016190;28;20113;-73
2023/07/17 05:48:19;;;;;;;0.00;0.00;;;;;;;12.77;100.00;100392.88;5018097;28;20033;-72
2023/07/17 05:50:44;;;;;;;0.00;0.00;;;;;;;12.80;100.00;100393.13;5016484;28;20028;-73
2023/07/17 05:53:09;;;;;;;0.00;0.00;;;;;;;12.87;100.00;100392.81;5022082;28;20421;-73
2023/07/17 05:55:35;;;;;;;0.00;0.00;;;;;;;12.94;100.00;100390.59;5028156;28;20030;-73
2023/07/17 05:58:01;;;;;;;0.00;0.00;;;;;;;13.07;100.00;100398.22;5003781;28;20039;-72
2023/07/17 06:00:26;;;;;;;0.00;0.00;;;;;;;13.12;100.00;100404.78;5023777;28;20038;-72
2023/07/17 06:02:52;;;;;;;0.00;0.00;;;;;;;13.15;100.00;100393.22;5004339;28;20378;-73
2023/07/17 06:05:17;;;;;;;0.00;0.00;;;;;;;13.30;100.00;100404.09;5000353;28;20034;-73
2023/07/17 06:07:43;;;;;;;0.00;0.00;;;;;;;13.39;100.00;100407.09;5022605;28;20511;-74
2023/07/17 06:10:09;;;;;;;0.00;0.00;;;;;;;13.47;100.00;100406.50;4999305;28;20037;-73
2023/07/17 06:12:34;;;;;;;0.00;0.00;;;;;;;13.54;100.00;100401.50;5037004;28;20542;-74
2023/07/17 06:15:00;;;;;;;0.00;0.00;;;;;;;13.68;100.00;100412.66;5000540;28;20424;-73
2023/07/17 06:17:25;;;;;;;0.00;0.00;;;;;;;13.81;100.00;100416.66;5020525;28;20038;-72
2023/07/17 06:19:50;;;;;;;0.00;0.00;;;;;;;13.93;100.00;100419.03;5008488;28;20090;-71
2023/07/17 06:22:16;;;;;;;0.00;0.00;;;;;;;14.01;100.00;100421.16;4983350;28;20034;-73
2023/07/17 06:24:41;;;;;;;0.00;0.00;;;;;;;14.12;100.00;100421.91;5016221;28;20034;-73
2023/07/17 06:27:07;;;;;;;0.00;0.00;;;;;;;14.19;100.00;100433.34;5007941;28;20054;-75
2023/07/17 06:29:33;;;;;;;0.00;0.00;;;;;;;14.19;100.00;100429.78;5006043;28;20501;-76
2023/07/17 06:31:58;;;;;;;0.00;0.00;;;;;;;14.19;100.00;100433.34;5003186;28;20042;-74
2023/07/17 06:34:23;;;;;;;0.00;0.00;;;;;;;14.17;100.00;100432.84;5020061;28;20113;-75
2023/07/17 06:36:52;;;;;;;0.00;0.00;;;;;;;14.33;100.00;100433.50;4993439;28;20038;-74
2023/07/17 06:39:17;;;;;;;0.00;0.00;;;;;;;14.78;99.30;100444.34;5021764;28;20030;-75
2023/07/17 06:41:43;;;;;;;0.00;0.00;;;;;;;15.18;96.95;100437.44;5007510;28;20533;-73
2023/07/17 06:44:08;;;;;;;0.00;0.00;;;;;;;15.40;94.79;100438.81;5006348;28;20041;-75
2023/07/17 06:46:34;;;;;;;0.00;0.00;;;;;;;15.67;93.37;100442.81;5006849;28;20422;-74
2023/07/17 06:48:59;;;;;;;0.00;0.00;;;;;;;15.82;91.54;100445.34;5007121;28;20041;-74
2023/07/17 06:51:25;;;;;;;0.00;0.00;;;;;;;15.90;90.68;100446.59;5005809;28;20030;-76
2023/07/17 06:53:53;;;;;;;0.00;0.00;;;;;;;16.06;90.06;100466.47;5002927;28;20080;-74
2023/07/17 06:56:18;;;;;;;0.00;0.00;;;;;;;15.86;86.27;100451.09;4994603;28;20054;-76
2023/07/17 06:58:44;;;;;;;0.00;0.00;;;;;;;15.90;86.14;100467.84;5018262;28;20387;-75
2023/07/17 07:01:11;;;;;;;0.00;0.00;;;;;;;15.74;85.55;100446.03;5011569;28;20026;-77
2023/07/17 07:03:37;;;;;;;0.00;0.00;;;;;;;15.58;85.27;100444.59;5005934;28;20026;-73
2023/07/17 07:06:04;;;;;;;0.00;0.00;;;;;;;15.76;84.28;100465.03;5012803;28;20491;-75
2023/07/17 07:08:31;;;;;;;0.00;0.00;;;;;;;15.80;83.30;100463.31;4992620;28;20027;-73
2023/07/17 07:10:58;;;;;;;0.00;0.00;;;;;;;15.77;82.73;100459.19;5013922;28;20104;-73
2023/07/17 07:13:24;;;;;;;0.00;0.00;;;;;;;16.18;82.70;100469.56;5021622;28;20026;-73
2023/07/17 07:15:50;;;;;;;0.00;0.00;;;;;;;16.50;81.48;100473.44;5020598;28;20084;-73
2023/07/17 07:18:16;;;;;;;0.00;0.00;;;;;;;16.43;80.36;100474.94;5021315;28;20030;-74
2023/07/17 07:20:43;;;;;;;0.00;0.00;;;;;;;16.30;79.99;100487.59;5004265;28;20552;-74
2023/07/17 07:23:09;;;;;;;0.00;0.00;;;;;;;16.27;79.02;100482.69;5005871;28;20380;-73
2023/07/17 07:25:34;;;;;;;0.00;0.00;;;;;;;16.18;80.32;100486.13;5033466;28;20033;-72
2023/07/17 07:28:00;;;;;;;0.00;0.00;;;;;;;16.41;80.76;100489.03;5003869;28;20050;-74
2023/07/17 07:30:26;;;;;;;0.00;0.00;;;;;;;16.70;80.23;100487.94;5036060;28;20029;-74
2023/07/17 07:32:52;;;;;;;0.00;0.00;;;;;;;17.06;78.63;100490.84;5015788;28;20868;-73
2023/07/17 07:35:17;;;;;;;0.00;0.00;;;;;;;17.18;76.87;100495.84;4999911;28;20025;-73
2023/07/17 07:37:43;;;;;;;0.00;0.00;;;;;;;16.91;77.43;100500.28;5030385;28;20405;-74
2023/07/17 07:40:11;;;;;;;0.00;0.00;;;;;;;16.90;77.43;100501.38;5005080;28;20060;-74
2023/07/17 07:42:37;;;;;;;0.00;0.00;;;;;;;16.77;76.89;100496.66;5007760;28;20026;-75
2023/07/17 07:45:06;;;;;;;0.00;0.00;;;;;;;16.75;77.03;100493.38;4990103;28;20033;-74
2023/07/17 07:47:34;;;;;;;0.00;0.00;;;;;;;16.88;76.76;100497.28;5023882;28;20076;-74
2023/07/17 07:50:02;;;;;;;0.00;0.00;;;;;;;16.94;74.53;100487.78;5011584;28;20084;-73
2023/07/17 07:52:27;;;;;;;0.00;0.00;;;;;;;17.01;74.16;100490.97;5006332;28;20031;-74
2023/07/17 07:54:53;;;;;;;0.00;0.00;;;;;;;17.20;74.22;100501.91;4972796;28;20040;-73
2023/07/17 07:57:19;;;;;;;0.00;0.00;;;;;;;17.46;72.41;100490.25;5010880;28;20103;-72
2023/07/17 07:59:44;;;;;;;0.00;0.00;;;;;;;17.43;71.46;100496.41;5008184;28;20038;-72
2023/07/17 08:02:10;;;;;;;0.00;0.00;;;;;;;17.22;71.67;100502.41;5011684;28;20060;-72
2023/07/17 08:04:36;;;;;;;0.00;0.00;;;;;;;17.18;71.20;100509.66;5008825;28;20042;-72
2023/07/17 08:07:02;;;;;;;0.00;0.00;;;;;;;16.93;71.57;100514.56;5014445;28;20045;-72
2023/07/17 08:09:28;;;;;;;0.00;0.00;;;;;;;16.92;72.81;100509.34;5013737;28;20026;-73
2023/07/17 08:11:53;;;;;;;0.00;0.00;;;;;;;17.05;73.71;100507.72;5017649;28;20526;-72
2023/07/17 08:14:22;;;;;;;0.00;0.00;;;;;;;17.04;73.21;100517.97;5015891;28;20068;-72
2023/07/17 08:16:48;;;;;;;0.00;0.00;;;;;;;17.02;72.57;100514.69;5033525;28;20112;-72
2023/07/17 08:19:13;;;;;;;0.00;0.00;;;;;;;17.10;72.46;100515.94;5009350;28;20163;-72
2023/07/17 08:21:39;;;;;;;0.00;0.00;;;;;;;17.13;71.58;100514.47;5020366;28;20112;-71
2023/07/17 08:24:05;;;;;;;0.00;0.00;;;;;;;17.40;72.28;100516.38;5016241;28;20396;-73
2023/07/17 08:26:31;;;;;;;0.00;0.00;;;;;;;17.73;69.04;100527.28;5034021;28;20033;-72
2023/07/17 08:28:56;;;;;;;0.00;0.00;;;;;;;18.12;68.39;100528.59;5005956;28;20053;-72
2023/07/17 08:31:22;;;;;;;0.00;0.00;;;;;;;18.54;66.59;100533.91;5007689;28;20029;-72
2023/07/17 08:33:47;;;;;;;0.00;0.00;;;;;;;18.97;64.30;100525.84;5020351;28;20037;-72
2023/07/17 08:36:13;;;;;;;0.00;0.00;;;;;;;19.31;63.24;100529.84;4993209;28;20379;-71
2023/07/17 08:38:38;;;;;;;0.00;0.00;;;;;;;19.63;60.67;100529.75;5002743;28;20031;-71
2023/07/17 08:41:04;;;;;;;0.00;0.00;;;;;;;19.87;60.58;100534.84;5013593;28;20085;-71
2023/07/17 08:43:30;;;;;;;0.00;0.00;;;;;;;19.93;59.93;100529.94;5018631;28;20026;-71
2023/07/17 08:45:56;;;;;;;0.00;0.00;;;;;;;19.73;59.93;100537.75;5034045;28;20029;-72
2023/07/17 08:48:24;;;;;;;0.00;0.00;;;;;;;19.46;60.58;100552.72;5017837;28;20032;-71
2023/07/17 08:50:51;;;;;;;0.00;0.00;;;;;;;19.56;59.11;100541.31;5016085;28;20045;-72
2023/07/17 08:53:19;;;;;;;0.00;0.00;;;;;;;19.39;59.60;100536.56;5007513;28;20021;-71
2023/07/17 08:55:46;;;;;;;0.00;0.00;;;;;;;19.19;59.34;100536.00;5004323;28;20061;-74
2023/07/17 08:58:13;;;;;;;0.00;0.00;;;;;;;19.06;60.84;100522.28;4999421;28;20029;-73
2023/07/17 09:00:39;;;;;;;0.00;0.00;;;;;;;19.01;60.67;100543.47;4993902;28;20038;-72
2023/07/17 09:03:04;;;;;;;0.00;0.00;;;;;;;19.26;60.75;100532.78;5000286;28;20026;-72
2023/07/17 09:05:30;;;;;;;0.00;0.00;;;;;;;19.49;58.12;100546.50;5028944;28;20092;-72
2023/07/17 09:07:55;;;;;;;0.00;0.00;;;;;;;19.78;57.92;100540.38;5005420;28;20076;-71
2023/07/17 09:10:23;;;;;;;0.00;0.00;;;;;;;19.84;56.94;100541.88;4991066;28;20030;-70
2023/07/17 09:12:51;;;;;;;0.00;0.00;;;;;;;19.66;57.54;100540.19;5015980;28;20030;-72
2023/07/17 09:15:17;;;;;;;0.00;0.00;;;;;;;19.64;58.45;100554.38;4995461;28;20471;-72
2023/07/17 09:17:44;;;;;;;0.00;0.00;;;;;;;19.54;56.68;100547.19;5023312;28;20030;-70
2023/07/17 09:20:11;;;;;;;0.00;0.00;;;;;;;19.86;57.57;100556.22;5019544;28;20030;-71
2023/07/17 09:22:38;;;;;;;0.00;0.00;;;;;;;19.94;55.80;100562.91;5005645;28;20648;-70
2023/07/17 09:25:07;;;;;;;0.00;0.00;;;;;;;19.74;54.86;100563.53;5018502;28;20553;-72
2023/07/17 09:27:50;;;;;;;0.00;0.00;;;;;;;19.87;56.37;100559.81;5008122;28;20574;-71
2023/07/17 09:30:18;;;;;;;0.00;0.00;;;;;;;20.21;53.61;100566.53;5027547;28;20502;-72
2023/07/17 09:32:45;;;;;;;0.00;0.00;;;;;;;20.28;54.41;100566.84;5008317;28;20374;-70
2023/07/17 09:35:12;;;;;;;0.00;0.00;;;;;;;20.37;52.71;100569.56;5007309;28;20026;-71
2023/07/17 09:37:39;;;;;;;0.00;0.00;;;;;;;19.71;53.35;100568.59;5036568;28;20014;-72
2023/07/17 09:40:10;;;;;;;0.00;0.00;;;;;;;19.38;55.05;100567.34;5020629;28;20399;-73
2023/07/17 09:42:35;;;;;;;0.00;0.00;;;;;;;19.28;55.78;100563.75;5038227;28;20031;-73
2023/07/17 09:45:03;;;;;;;0.00;0.00;;;;;;;19.76;56.02;100577.91;5007836;28;20022;-75
2023/07/17 09:47:30;;;;;;;0.00;0.00;;;;;;;19.85;54.22;100581.53;5008486;28;20044;-73
2023/07/17 09:49:56;;;;;;;0.00;0.00;;;;;;;19.80;53.76;100568.63;5040001;28;20037;-71
2023/07/17 09:52:22;;;;;;;0.00;0.00;;;;;;;19.79;52.88;100582.84;5040347;28;20423;-71
2023/07/17 09:54:53;;;;;;;0.00;0.00;;;;;;;19.87;54.05;100557.03;5022296;28;20069;-71
2023/07/17 09:57:30;;;;;;;0.00;0.00;;;;;;;20.15;54.29;100571.41;5039859;28;20392;-72
2023/07/17 09:59:58;;;;;;;0.00;0.00;;;;;;;20.51;54.54;100580.50;5003607;28;20032;-72
2023/07/17 10:02:29;;;;;;;0.00;0.00;;;;;;;21.10;50.86;100580.69;5016230;28;20468;-71
2023/07/17 10:04:58;;;;;;;0.00;0.00;;;;;;;22.57;48.03;100579.19;5008663;28;20469;-72
2023/07/17 10:07:24;;;;;;;0.00;0.00;;;;;;;25.20;42.74;100598.31;5033128;28;20033;-74
2023/07/17 10:09:50;;;;;;;0.00;0.00;;;;;;;27.44;37.39;100597.31;4990728;28;20048;-74
2023/07/17 10:12:22;;;;;;;0.00;0.00;;;;;;;29.82;32.87;100588.59;5027772;28;20444;-73
2023/07/17 10:14:48;;;;;;;0.00;0.00;;;;;;;31.71;30.43;100597.06;5028283;28;20025;-73
2023/07/17 10:17:24;;;;;;;0.00;0.00;;;;;;;31.38;28.15;100594.28;5003747;28;20172;-72
2023/07/17 10:19:50;;;;;;;0.00;0.00;;;;;;;30.23;29.29;100608.19;5008091;28;20058;-74
2023/07/17 10:22:16;;;;;;;0.00;0.00;;;;;;;30.91;29.43;100602.69;5027510;28;20030;-71
2023/07/17 10:24:43;;;;;;;0.00;0.00;;;;;;;32.46;27.08;100602.47;5001264;28;20667;-72
2023/07/17 10:27:08;;;;;;;0.00;0.00;;;;;;;30.50;29.11;100602.25;5009052;28;20058;-72
2023/07/17 10:29:41;;;;;;;0.00;0.00;;;;;;;28.42;32.92;100596.66;5010307;28;20029;-73
2023/07/17 10:32:12;;;;;;;0.00;0.00;;;;;;;30.89;29.97;100609.97;5008686;28;20527;-73
2023/07/17 10:34:47;;;;;;;0.00;0.00;;;;;;;33.29;26.95;100618.09;4998933;28;20048;-73
2023/07/17 10:37:35;;;;;;;0.00;0.00;;;;;;;32.98;27.42;100603.75;5014102;28;20053;-72
2023/07/17 10:40:24;;;;;;;0.00;0.00;;;;;;;31.84;28.63;100618.03;5041204;28;20026;-73
2023/07/17 10:42:51;;;;;;;0.00;0.00;;;;;;;31.63;29.22;100625.34;5004626;28;20451;-73
2023/07/17 10:45:17;;;;;;;0.00;0.00;;;;;;;29.90;31.18;100621.28;5005194;28;20033;-74
2023/07/17 10:47:42;;;;;;;0.00;0.00;;;;;;;28.24;33.79;100628.16;4998323;28;20475;-73
2023/07/17 10:50:08;;;;;;;0.00;0.00;;;;;;;26.90;36.18;100630.06;5002116;28;20122;-73
2023/07/17 10:52:36;;;;;;;0.00;0.00;;;;;;;26.25;37.96;100629.56;5024251;28;20029;-73
2023/07/17 10:55:04;;;;;;;0.00;0.00;;;;;;;26.01;39.29;100618.66;5018581;28;20042;-72
2023/07/17 10:57:30;;;;;;;0.00;0.00;;;;;;;30.10;33.56;100619.00;5003727;28;20028;-74
2023/07/17 10:59:57;;;;;;;0.00;0.00;;;;;;;34.16;28.42;100616.00;5011706;28;20035;-74
2023/07/17 11:02:26;;;;;;;0.00;0.00;;;;;;;36.93;24.12;100630.22;5041492;28;20149;-74
2023/07/17 11:04:57;;;;;;;0.00;0.00;;;;;;;38.35;21.07;100617.47;5011879;28;20044;-72
2023/07/17 11:07:24;;;;;;;0.00;0.00;;;;;;;39.01;19.99;100604.81;5000765;28;20113;-73
2023/07/17 11:09:50;;;;;;;0.00;0.00;;;;;;;39.29;19.21;100608.75;5023508;28;20033;-74
2023/07/17 11:12:16;;;;;;;0.00;0.00;;;;;;;40.06;18.70;100614.22;5008766;28;20026;-74
2023/07/17 11:14:42;;;;;;;0.00;0.00;;;;;;;39.09;18.90;100611.84;5027813;28;20052;-74
2023/07/17 11:17:16;;;;;;;0.00;0.00;;;;;;;35.02;22.98;100604.66;5012608;28;20467;-73
2023/07/17 11:19:42;;;;;;;0.00;0.00;;;;;;;31.53;26.52;100614.00;5005203;28;20357;-73